CCGS Cape Naden — CFN5482 — position and weather

sailwx.info

Track history (hours):
 
Tides and Currents Weather Stations Pressure Air Temp Water Temp Dewpoint Dewpoint Depression Visibility Wind Speed Wind Dir Waves Ship Positions

CCGS Cape Naden

Last reported at 2015-Apr-21 05:16 UTC. Time now 2015-Apr-21 06:34 UTC.
Position N 48°51' W 123°30'.

Length 15 m; draft 0.8 m.

Type: SAR. MMSI: 316017162.

Date/timePositionNaut miles runAvg speedWind from/ knotsBaromVisibWave heightAir tempDewpointWater temp
2015-Apr-21 05:16N 48°51' W 123°30'0 0.0
2015-Apr-21 04:16N 48°51' W 123°30'0 0.0
2015-Apr-21 02:27N 48°51' W 123°30'0 0.0
2015-Apr-20 19:33N 48°51' W 123°30'0 0.0
2015-Apr-20 18:20N 48°51' W 123°30'0 0.0
2015-Apr-20 16:18N 48°51' W 123°30'0 0.0
2015-Apr-20 14:28N 48°51' W 123°30'0 0.0
2015-Apr-20 13:29N 48°51' W 123°30'0 0.0
2015-Apr-20 11:04N 48°51' W 123°30'0 0.0
2015-Apr-20 00:05N 48°51' W 123°30'0 0.0
2015-Apr-19 22:09N 48°51' W 123°30'0 0.1
2015-Apr-19 21:31N 48°51' W 123°30'8 8.1
2015-Apr-19 20:31N 48°44' W 123°25'8 8.4
2015-Apr-19 19:33N 48°51' W 123°30'0 0.0
2015-Apr-19 18:28N 48°51' W 123°30'0 0.0
2015-Apr-19 17:33N 48°51' W 123°30'0 0.0
2015-Apr-19 16:31N 48°51' W 123°30'0 0.0
2015-Apr-19 15:33N 48°51' W 123°30'1210.8
2015-Apr-19 14:29N 48°44' W 123°16'1212.2
2015-Apr-19 13:32N 48°51' W 123°30'0 0.0
2015-Apr-19 12:28N 48°51' W 123°30'0 0.0
2015-Apr-19 11:25N 48°51' W 123°30'0 0.0
2015-Apr-19 10:18N 48°51' W 123°30'0 0.0
2015-Apr-19 08:30N 48°51' W 123°30'0 0.0
2015-Apr-19 00:33N 48°51' W 123°30'0 0.0
2015-Apr-18 23:33N 48°51' W 123°30'0 0.0
2015-Apr-18 22:33N 48°51' W 123°30'0 0.0
2015-Apr-18 21:14N 48°51' W 123°30'0 0.0
2015-Apr-18 19:27N 48°51' W 123°30'0 0.0
2015-Apr-18 18:33N 48°51' W 123°30'0 0.0
2015-Apr-18 17:04N 48°51' W 123°30'0 0.0
2015-Apr-18 15:30N 48°51' W 123°30'0 0.0
2015-Apr-18 14:25N 48°51' W 123°30'0 0.0
2015-Apr-18 13:26N 48°51' W 123°30'0 0.0
2015-Apr-18 12:33N 48°51' W 123°30'0 0.0
2015-Apr-18 11:33N 48°51' W 123°30'0 0.0
2015-Apr-18 10:29N 48°51' W 123°30'0 0.0
2015-Apr-18 09:24N 48°51' W 123°30'0 0.0
2015-Apr-18 08:29N 48°51' W 123°30'0 0.0
2015-Apr-18 03:30N 48°51' W 123°30'0 0.0
2015-Apr-18 02:33N 48°51' W 123°30'0 0.0
2015-Apr-18 01:33N 48°51' W 123°30'0 0.0
2015-Apr-18 00:32N 48°51' W 123°30'0 0.0
2015-Apr-17 23:33N 48°51' W 123°30'0 0.0
2015-Apr-17 22:31N 48°51' W 123°30'0 0.0
2015-Apr-17 21:31N 48°51' W 123°30'0 0.0
2015-Apr-17 19:31N 48°51' W 123°30'1 1.0
2015-Apr-17 18:31N 48°51' W 123°28'10 9.9
2015-Apr-17 17:29N 48°60' W 123°36'5 4.5
2015-Apr-17 16:23N 48°56' W 123°31'6 6.5
2015-Apr-17 15:32N 48°51' W 123°29'1 0.6
2015-Apr-17 14:31N 48°51' W 123°30'0 0.0
2015-Apr-17 13:33N 48°51' W 123°30'0 0.0
2015-Apr-17 12:33N 48°51' W 123°30'0 0.0
2015-Apr-17 11:33N 48°51' W 123°30'0 0.0
2015-Apr-17 10:31N 48°51' W 123°30'0 0.0
2015-Apr-17 09:33N 48°51' W 123°30'0 0.0
2015-Apr-17 02:24N 48°51' W 123°30'0 0.0
2015-Apr-16 21:13N 48°51' W 123°30'0 0.0
2015-Apr-16 20:29N 48°51' W 123°30'0 0.0
2015-Apr-16 19:32N 48°51' W 123°30'0 0.0
2015-Apr-16 17:04N 48°51' W 123°30'0 0.0
2015-Apr-16 11:06N 48°51' W 123°30'0 0.0
2015-Apr-16 10:27N 48°51' W 123°30'0 0.0
2015-Apr-16 09:29N 48°51' W 123°30'0 0.0
2015-Apr-16 06:27N 48°51' W 123°30'0 0.0
2015-Apr-16 05:16N 48°51' W 123°30'0 0.0
2015-Apr-16 02:33N 48°51' W 123°30'0 0.0
2015-Apr-16 01:33N 48°51' W 123°30'0 0.0
2015-Apr-16 00:33N 48°51' W 123°30'0 0.0
2015-Apr-15 23:31N 48°51' W 123°30'0 0.0
2015-Apr-15 22:30N 48°51' W 123°30'0 0.0
2015-Apr-15 21:14N 48°51' W 123°30'0 0.0
2015-Apr-15 20:33N 48°51' W 123°30'0 0.0
2015-Apr-15 19:32N 48°51' W 123°30'0 0.0
2015-Apr-15 17:20N 48°51' W 123°30'0 0.0
2015-Apr-15 14:23N 48°51' W 123°30'0 0.0
2015-Apr-15 13:06N 48°51' W 123°30'0 0.0
2015-Apr-15 12:27N 48°51' W 123°30'0 0.0
2015-Apr-15 11:33N 48°51' W 123°30'0 0.0
2015-Apr-15 10:29N 48°51' W 123°30'0 0.0
2015-Apr-15 09:32N 48°51' W 123°30'0 0.0
2015-Apr-15 08:33N 48°51' W 123°30'0 0.0
2015-Apr-15 07:33N 48°51' W 123°30'0 0.0
2015-Apr-15 06:29N 48°51' W 123°30'0 0.0
2015-Apr-15 05:30N 48°51' W 123°30'0 0.0
2015-Apr-15 04:24N 48°51' W 123°30'0 0.0
2015-Apr-15 03:26N 48°51' W 123°30'0 0.0
2015-Apr-15 02:22N 48°51' W 123°30'0 0.0
2015-Apr-15 01:31N 48°51' W 123°30'0 0.0
2015-Apr-15 00:33N 48°51' W 123°30'0 0.0
2015-Apr-14 23:32N 48°51' W 123°30'0 0.0
2015-Apr-14 22:32N 48°51' W 123°30'0 0.0
2015-Apr-14 21:33N 48°51' W 123°30'0 0.0
2015-Apr-14 20:31N 48°51' W 123°30'0 0.0
2015-Apr-14 19:31N 48°51' W 123°30'0 0.0
2015-Apr-14 13:33N 48°51' W 123°30'0 0.0
2015-Apr-14 12:33N 48°51' W 123°30'0 0.0
2015-Apr-14 11:31N 48°51' W 123°30'0 0.0
2015-Apr-14 10:32N 48°51' W 123°30'0 0.0
2015-Apr-14 09:33N 48°51' W 123°30'0 0.0
2015-Apr-14 08:31N 48°51' W 123°30'0 0.0
2015-Apr-14 07:31N 48°51' W 123°30'0 0.0
2015-Apr-14 06:31N 48°51' W 123°30'0 0.0
2015-Apr-14 05:30N 48°51' W 123°30'0 0.0
2015-Apr-14 04:31N 48°51' W 123°30'0 0.0
2015-Apr-13 23:24N 48°51' W 123°30'0 0.0
2015-Apr-13 21:29N 48°51' W 123°30'0 0.0
2015-Apr-13 20:25N 48°51' W 123°30'0 0.0
2015-Apr-13 19:32N 48°51' W 123°30'0 0.0
2015-Apr-13 18:32N 48°51' W 123°30'0 0.0
2015-Apr-13 17:31N 48°51' W 123°30'0 0.0
2015-Apr-13 16:30N 48°51' W 123°30'0 0.0
2015-Apr-13 15:27N 48°51' W 123°30'0 0.0
2015-Apr-13 14:29N 48°51' W 123°30'0 0.0
2015-Apr-13 11:08N 48°51' W 123°30'0 0.0
2015-Apr-13 10:33N 48°51' W 123°30'0 0.0
2015-Apr-13 09:32N 48°51' W 123°30'0 0.0
2015-Apr-13 08:26N 48°51' W 123°30'0 0.0
2015-Apr-13 07:33N 48°51' W 123°30'0 0.0
2015-Apr-13 06:22N 48°51' W 123°30'0 0.0
2015-Apr-13 05:32N 48°51' W 123°30'0 0.0
2015-Apr-13 04:32N 48°51' W 123°30'0 0.0
2015-Apr-13 03:33N 48°51' W 123°30'0 0.0
2015-Apr-13 02:32N 48°51' W 123°30'0 0.0
2015-Apr-13 00:30N 48°51' W 123°30'0 0.0
2015-Apr-12 21:30N 48°51' W 123°30'0 0.0
2015-Apr-12 20:32N 48°51' W 123°30'0 0.0
2015-Apr-12 19:33N 48°51' W 123°30'0 0.0
2015-Apr-12 18:33N 48°51' W 123°30'8 8.0
2015-Apr-12 17:33N 48°46' W 123°20'2 1.9
2015-Apr-12 16:33N 48°48' W 123°22'6 6.4
2015-Apr-12 15:33N 48°51' W 123°30'0 0.0
2015-Apr-12 14:31N 48°51' W 123°30'0 0.0
2015-Apr-12 13:33N 48°51' W 123°30'0 0.0
2015-Apr-12 12:32N 48°51' W 123°30'0 0.0
2015-Apr-12 11:33N 48°51' W 123°30'0 0.0
2015-Apr-12 10:33N 48°51' W 123°30'0 0.0
2015-Apr-12 09:34N 48°51' W 123°30'0 0.0
2015-Apr-12 08:33N 48°51' W 123°30'0 0.0
2015-Apr-12 07:33N 48°51' W 123°30'0 0.0
2015-Apr-12 06:33N 48°51' W 123°30'0 0.0
2015-Apr-12 05:32N 48°51' W 123°30'0 0.0
2015-Apr-12 04:33N 48°51' W 123°30'0 0.0
2015-Apr-12 03:33N 48°51' W 123°30'0 0.0
2015-Apr-12 02:33N 48°51' W 123°30'0 0.0
2015-Apr-12 01:33N 48°51' W 123°30'0 0.0
2015-Apr-12 00:33N 48°51' W 123°30'0 0.0
2015-Apr-11 23:28N 48°51' W 123°30'0 0.0
2015-Apr-11 22:33N 48°51' W 123°30'0 0.0
2015-Apr-11 21:33N 48°51' W 123°30'0 0.0
2015-Apr-11 20:33N 48°51' W 123°30'0 0.0
2015-Apr-11 19:33N 48°51' W 123°30'0 0.0
2015-Apr-11 18:32N 48°51' W 123°30'0 0.0
2015-Apr-11 17:33N 48°51' W 123°30'0 0.0
2015-Apr-11 16:33N 48°51' W 123°30'0 0.0
2015-Apr-11 15:33N 48°51' W 123°30'0 0.0
2015-Apr-11 14:26N 48°51' W 123°30'0 0.0
2015-Apr-11 13:32N 48°51' W 123°30'0 0.0
2015-Apr-11 12:29N 48°51' W 123°30'0 0.0
2015-Apr-11 11:32N 48°51' W 123°30'0 0.0
2015-Apr-11 10:33N 48°51' W 123°30'0 0.0
2015-Apr-11 09:33N 48°51' W 123°30'0 0.0
2015-Apr-11 08:32N 48°51' W 123°30'0 0.0
2015-Apr-11 07:31N 48°51' W 123°30'0 0.0
2015-Apr-11 06:33N 48°51' W 123°30'0 0.0
2015-Apr-11 05:33N 48°51' W 123°30'  
Track history (hours):
 
Tides and Currents Weather Stations Pressure Air Temp Water Temp Dewpoint Dewpoint Depression Visibility Wind Speed Wind Dir Waves Ship Positions

CCGS Cape Naden

Last reported at 2015-Apr-21 05:16 UTC. Time now 2015-Apr-21 06:34 UTC.
Position N 48°51' W 123°30'.

Length 15 m; draft 0.8 m.

Type: SAR. MMSI: 316017162.

Date/timePositionNaut miles runAvg speedWind from/ knotsBaromVisibWave heightAir tempDewpointWater temp
2015-Apr-21 05:16N 48°51' W 123°30'0 0.0
2015-Apr-21 04:16N 48°51' W 123°30'0 0.0
2015-Apr-21 02:27N 48°51' W 123°30'0 0.0
2015-Apr-20 19:33N 48°51' W 123°30'0 0.0
2015-Apr-20 18:20N 48°51' W 123°30'0 0.0
2015-Apr-20 16:18N 48°51' W 123°30'0 0.0
2015-Apr-20 14:28N 48°51' W 123°30'0 0.0
2015-Apr-20 13:29N 48°51' W 123°30'0 0.0
2015-Apr-20 11:04N 48°51' W 123°30'0 0.0
2015-Apr-20 00:05N 48°51' W 123°30'0 0.0
2015-Apr-19 22:09N 48°51' W 123°30'0 0.1
2015-Apr-19 21:31N 48°51' W 123°30'8 8.1
2015-Apr-19 20:31N 48°44' W 123°25'8 8.4
2015-Apr-19 19:33N 48°51' W 123°30'0 0.0
2015-Apr-19 18:28N 48°51' W 123°30'0 0.0
2015-Apr-19 17:33N 48°51' W 123°30'0 0.0
2015-Apr-19 16:31N 48°51' W 123°30'0 0.0
2015-Apr-19 15:33N 48°51' W 123°30'1210.8
2015-Apr-19 14:29N 48°44' W 123°16'1212.2
2015-Apr-19 13:32N 48°51' W 123°30'0 0.0
2015-Apr-19 12:28N 48°51' W 123°30'0 0.0
2015-Apr-19 11:25N 48°51' W 123°30'0 0.0
2015-Apr-19 10:18N 48°51' W 123°30'0 0.0
2015-Apr-19 08:30N 48°51' W 123°30'0 0.0
2015-Apr-19 00:33N 48°51' W 123°30'0 0.0
2015-Apr-18 23:33N 48°51' W 123°30'0 0.0
2015-Apr-18 22:33N 48°51' W 123°30'0 0.0
2015-Apr-18 21:14N 48°51' W 123°30'0 0.0
2015-Apr-18 19:27N 48°51' W 123°30'0 0.0
2015-Apr-18 18:33N 48°51' W 123°30'0 0.0
2015-Apr-18 17:04N 48°51' W 123°30'0 0.0
2015-Apr-18 15:30N 48°51' W 123°30'0 0.0
2015-Apr-18 14:25N 48°51' W 123°30'0 0.0
2015-Apr-18 13:26N 48°51' W 123°30'0 0.0
2015-Apr-18 12:33N 48°51' W 123°30'0 0.0
2015-Apr-18 11:33N 48°51' W 123°30'0 0.0
2015-Apr-18 10:29N 48°51' W 123°30'0 0.0
2015-Apr-18 09:24N 48°51' W 123°30'0 0.0
2015-Apr-18 08:29N 48°51' W 123°30'0 0.0
2015-Apr-18 03:30N 48°51' W 123°30'0 0.0
2015-Apr-18 02:33N 48°51' W 123°30'0 0.0
2015-Apr-18 01:33N 48°51' W 123°30'0 0.0
2015-Apr-18 00:32N 48°51' W 123°30'0 0.0
2015-Apr-17 23:33N 48°51' W 123°30'0 0.0
2015-Apr-17 22:31N 48°51' W 123°30'0 0.0
2015-Apr-17 21:31N 48°51' W 123°30'0 0.0
2015-Apr-17 19:31N 48°51' W 123°30'1 1.0
2015-Apr-17 18:31N 48°51' W 123°28'10 9.9
2015-Apr-17 17:29N 48°60' W 123°36'5 4.5
2015-Apr-17 16:23N 48°56' W 123°31'6 6.5
2015-Apr-17 15:32N 48°51' W 123°29'1 0.6
2015-Apr-17 14:31N 48°51' W 123°30'0 0.0
2015-Apr-17 13:33N 48°51' W 123°30'0 0.0
2015-Apr-17 12:33N 48°51' W 123°30'0 0.0
2015-Apr-17 11:33N 48°51' W 123°30'0 0.0
2015-Apr-17 10:31N 48°51' W 123°30'0 0.0
2015-Apr-17 09:33N 48°51' W 123°30'0 0.0
2015-Apr-17 02:24N 48°51' W 123°30'0 0.0
2015-Apr-16 21:13N 48°51' W 123°30'0 0.0
2015-Apr-16 20:29N 48°51' W 123°30'0 0.0
2015-Apr-16 19:32N 48°51' W 123°30'0 0.0
2015-Apr-16 17:04N 48°51' W 123°30'0 0.0
2015-Apr-16 11:06N 48°51' W 123°30'0 0.0
2015-Apr-16 10:27N 48°51' W 123°30'0 0.0
2015-Apr-16 09:29N 48°51' W 123°30'0 0.0
2015-Apr-16 06:27N 48°51' W 123°30'0 0.0
2015-Apr-16 05:16N 48°51' W 123°30'0 0.0
2015-Apr-16 02:33N 48°51' W 123°30'0 0.0
2015-Apr-16 01:33N 48°51' W 123°30'0 0.0
2015-Apr-16 00:33N 48°51' W 123°30'0 0.0
2015-Apr-15 23:31N 48°51' W 123°30'0 0.0
2015-Apr-15 22:30N 48°51' W 123°30'0 0.0
2015-Apr-15 21:14N 48°51' W 123°30'0 0.0
2015-Apr-15 20:33N 48°51' W 123°30'0 0.0
2015-Apr-15 19:32N 48°51' W 123°30'0 0.0
2015-Apr-15 17:20N 48°51' W 123°30'0 0.0
2015-Apr-15 14:23N 48°51' W 123°30'0 0.0
2015-Apr-15 13:06N 48°51' W 123°30'0 0.0
2015-Apr-15 12:27N 48°51' W 123°30'0 0.0
2015-Apr-15 11:33N 48°51' W 123°30'0 0.0
2015-Apr-15 10:29N 48°51' W 123°30'0 0.0
2015-Apr-15 09:32N 48°51' W 123°30'0 0.0
2015-Apr-15 08:33N 48°51' W 123°30'0 0.0
2015-Apr-15 07:33N 48°51' W 123°30'0 0.0
2015-Apr-15 06:29N 48°51' W 123°30'0 0.0
2015-Apr-15 05:30N 48°51' W 123°30'0 0.0
2015-Apr-15 04:24N 48°51' W 123°30'0 0.0
2015-Apr-15 03:26N 48°51' W 123°30'0 0.0
2015-Apr-15 02:22N 48°51' W 123°30'0 0.0
2015-Apr-15 01:31N 48°51' W 123°30'0 0.0
2015-Apr-15 00:33N 48°51' W 123°30'0 0.0
2015-Apr-14 23:32N 48°51' W 123°30'0 0.0
2015-Apr-14 22:32N 48°51' W 123°30'0 0.0
2015-Apr-14 21:33N 48°51' W 123°30'0 0.0
2015-Apr-14 20:31N 48°51' W 123°30'0 0.0
2015-Apr-14 19:31N 48°51' W 123°30'0 0.0
2015-Apr-14 13:33N 48°51' W 123°30'0 0.0
2015-Apr-14 12:33N 48°51' W 123°30'0 0.0
2015-Apr-14 11:31N 48°51' W 123°30'0 0.0
2015-Apr-14 10:32N 48°51' W 123°30'0 0.0
2015-Apr-14 09:33N 48°51' W 123°30'0 0.0
2015-Apr-14 08:31N 48°51' W 123°30'0 0.0
2015-Apr-14 07:31N 48°51' W 123°30'0 0.0
2015-Apr-14 06:31N 48°51' W 123°30'0 0.0
2015-Apr-14 05:30N 48°51' W 123°30'0 0.0
2015-Apr-14 04:31N 48°51' W 123°30'0 0.0
2015-Apr-13 23:24N 48°51' W 123°30'0 0.0
2015-Apr-13 21:29N 48°51' W 123°30'0 0.0
2015-Apr-13 20:25N 48°51' W 123°30'0 0.0
2015-Apr-13 19:32N 48°51' W 123°30'0 0.0
2015-Apr-13 18:32N 48°51' W 123°30'0 0.0
2015-Apr-13 17:31N 48°51' W 123°30'0 0.0
2015-Apr-13 16:30N 48°51' W 123°30'0 0.0
2015-Apr-13 15:27N 48°51' W 123°30'0 0.0
2015-Apr-13 14:29N 48°51' W 123°30'0 0.0
2015-Apr-13 11:08N 48°51' W 123°30'0 0.0
2015-Apr-13 10:33N 48°51' W 123°30'0 0.0
2015-Apr-13 09:32N 48°51' W 123°30'0 0.0
2015-Apr-13 08:26N 48°51' W 123°30'0 0.0
2015-Apr-13 07:33N 48°51' W 123°30'0 0.0
2015-Apr-13 06:22N 48°51' W 123°30'0 0.0
2015-Apr-13 05:32N 48°51' W 123°30'0 0.0
2015-Apr-13 04:32N 48°51' W 123°30'0 0.0
2015-Apr-13 03:33N 48°51' W 123°30'0 0.0
2015-Apr-13 02:32N 48°51' W 123°30'0 0.0
2015-Apr-13 00:30N 48°51' W 123°30'0 0.0
2015-Apr-12 21:30N 48°51' W 123°30'0 0.0
2015-Apr-12 20:32N 48°51' W 123°30'0 0.0
2015-Apr-12 19:33N 48°51' W 123°30'0 0.0
2015-Apr-12 18:33N 48°51' W 123°30'8 8.0
2015-Apr-12 17:33N 48°46' W 123°20'2 1.9
2015-Apr-12 16:33N 48°48' W 123°22'6 6.4
2015-Apr-12 15:33N 48°51' W 123°30'0 0.0
2015-Apr-12 14:31N 48°51' W 123°30'0 0.0
2015-Apr-12 13:33N 48°51' W 123°30'0 0.0
2015-Apr-12 12:32N 48°51' W 123°30'0 0.0
2015-Apr-12 11:33N 48°51' W 123°30'0 0.0
2015-Apr-12 10:33N 48°51' W 123°30'0 0.0
2015-Apr-12 09:34N 48°51' W 123°30'0 0.0
2015-Apr-12 08:33N 48°51' W 123°30'0 0.0
2015-Apr-12 07:33N 48°51' W 123°30'0 0.0
2015-Apr-12 06:33N 48°51' W 123°30'0 0.0
2015-Apr-12 05:32N 48°51' W 123°30'0 0.0
2015-Apr-12 04:33N 48°51' W 123°30'0 0.0
2015-Apr-12 03:33N 48°51' W 123°30'0 0.0
2015-Apr-12 02:33N 48°51' W 123°30'0 0.0
2015-Apr-12 01:33N 48°51' W 123°30'0 0.0
2015-Apr-12 00:33N 48°51' W 123°30'0 0.0
2015-Apr-11 23:28N 48°51' W 123°30'0 0.0
2015-Apr-11 22:33N 48°51' W 123°30'0 0.0
2015-Apr-11 21:33N 48°51' W 123°30'0 0.0
2015-Apr-11 20:33N 48°51' W 123°30'0 0.0
2015-Apr-11 19:33N 48°51' W 123°30'0 0.0
2015-Apr-11 18:32N 48°51' W 123°30'0 0.0
2015-Apr-11 17:33N 48°51' W 123°30'0 0.0
2015-Apr-11 16:33N 48°51' W 123°30'0 0.0
2015-Apr-11 15:33N 48°51' W 123°30'0 0.0
2015-Apr-11 14:26N 48°51' W 123°30'0 0.0
2015-Apr-11 13:32N 48°51' W 123°30'0 0.0
2015-Apr-11 12:29N 48°51' W 123°30'0 0.0
2015-Apr-11 11:32N 48°51' W 123°30'0 0.0
2015-Apr-11 10:33N 48°51' W 123°30'0 0.0
2015-Apr-11 09:33N 48°51' W 123°30'0 0.0
2015-Apr-11 08:32N 48°51' W 123°30'0 0.0
2015-Apr-11 07:31N 48°51' W 123°30'0 0.0
2015-Apr-11 06:33N 48°51' W 123°30'0 0.0
2015-Apr-11 05:33N 48°51' W 123°30'  

Dump ship's entire track history